createdAt,value
2023-04-10T00:02:03.577Z,102185.47
2023-04-10T00:04:31.390Z,102185.22
2023-04-10T00:06:58.953Z,102173.84
2023-04-10T00:09:28.871Z,102170.56
2023-04-10T00:11:56.555Z,102165.94
2023-04-10T00:14:24.461Z,102164.94
2023-04-10T00:16:52.190Z,102162.28
2023-04-10T00:19:19.867Z,102160.63
2023-04-10T00:21:47.380Z,102164.28
2023-04-10T00:24:14.942Z,102155.16
2023-04-10T00:26:43.876Z,102150.00
2023-04-10T00:29:11.479Z,102152.97
2023-04-10T00:31:39.049Z,102145.91
2023-04-10T00:34:06.930Z,102154.88
2023-04-10T00:36:35.013Z,102154.81
2023-04-10T00:39:02.549Z,102156.91
2023-04-10T00:41:30.668Z,102150.47
2023-04-10T00:44:00.138Z,102145.38
2023-04-10T00:46:28.748Z,102141.50
2023-04-10T00:48:57.269Z,102134.22
2023-04-10T00:51:24.870Z,102144.53
2023-04-10T00:53:52.960Z,102142.84
2023-04-10T00:56:21.405Z,102141.19
2023-04-10T00:58:49.154Z,102143.16
2023-04-10T01:01:18.988Z,102140.19
2023-04-10T01:03:46.810Z,102143.16
2023-04-10T01:06:24.414Z,102140.31
2023-04-10T01:09:00.757Z,102132.47
2023-04-10T01:11:38.224Z,102135.34
2023-04-10T01:14:12.625Z,102131.72
2023-04-10T01:16:49.622Z,102135.81
2023-04-10T01:19:28.590Z,102133.22
2023-04-10T01:21:57.308Z,102129.97
2023-04-10T01:24:45.870Z,102129.19
2023-04-10T01:27:36.190Z,102126.59
2023-04-10T01:30:07.263Z,102132.53
2023-04-10T01:32:37.454Z,102133.91
2023-04-10T01:35:08.966Z,102133.66
2023-04-10T01:37:39.732Z,102129.19
2023-04-10T01:40:11.900Z,102130.66
2023-04-10T01:42:44.923Z,102127.50
2023-04-10T01:45:18.798Z,102125.09
2023-04-10T01:47:49.459Z,102110.84
2023-04-10T01:50:18.605Z,102115.53
2023-04-10T01:52:47.926Z,102109.25
2023-04-10T01:55:22.422Z,102102.94
2023-04-10T01:57:55.871Z,102102.63
2023-04-10T02:00:26.731Z,102096.09
2023-04-10T02:02:54.715Z,102106.38
2023-04-10T02:05:23.649Z,102094.41
2023-04-10T02:07:58.553Z,102081.75
2023-04-10T02:10:31.525Z,102084.56
2023-04-10T02:13:02.061Z,102080.53
2023-04-10T02:15:33.186Z,102077.44
2023-04-10T02:18:01.787Z,102074.09
2023-04-10T02:20:29.782Z,102083.81
2023-04-10T02:22:59.789Z,102082.16
2023-04-10T02:25:27.435Z,102078.44
2023-04-10T02:27:54.951Z,102085.81
2023-04-10T02:30:23.373Z,102079.72
2023-04-10T02:32:52.588Z,102073.91
2023-04-10T02:35:20.155Z,102075.66
2023-04-10T02:37:47.690Z,102077.31
2023-04-10T02:40:16.738Z,102076.56
2023-04-10T02:42:53.163Z,102073.38
2023-04-10T02:45:20.816Z,102068.72
2023-04-10T02:47:48.742Z,102059.41
2023-04-10T02:50:18.054Z,102060.63
2023-04-10T02:52:47.189Z,102056.97
2023-04-10T02:55:14.840Z,102054.72
2023-04-10T02:57:43.462Z,102055.81
2023-04-10T03:00:12.217Z,102049.69
2023-04-10T03:03:02.187Z,102035.41
2023-04-10T03:05:37.649Z,102036.63
2023-04-10T03:08:05.609Z,102036.56
2023-04-10T03:10:33.314Z,102032.47
2023-04-10T03:13:00.994Z,102037.94
2023-04-10T03:15:28.581Z,102018.19
2023-04-10T03:17:58.688Z,102026.47
2023-04-10T03:20:26.474Z,102024.19
2023-04-10T03:22:55.593Z,102024.56
2023-04-10T03:25:26.321Z,102015.47
2023-04-10T03:27:54.097Z,102014.66
2023-04-10T03:30:22.003Z,102015.94
2023-04-10T03:32:50.041Z,102017.75
2023-04-10T03:35:17.705Z,102010.63
2023-04-10T03:37:45.370Z,102006.28
2023-04-10T03:40:14.545Z,102003.97
2023-04-10T03:42:42.140Z,102014.72
2023-04-10T03:45:11.331Z,102003.13
2023-04-10T03:47:38.926Z,102011.38
2023-04-10T03:50:09.917Z,102006.75
2023-04-10T03:52:46.190Z,102004.09
2023-04-10T03:55:19.516Z,101996.13
2023-04-10T03:57:48.585Z,102012.06
2023-04-10T04:00:19.003Z,101996.66
2023-04-10T04:02:50.624Z,101996.66
2023-04-10T04:05:50.284Z,101990.88
2023-04-10T04:08:28.327Z,101993.72
2023-04-10T04:11:03.795Z,102000.16
2023-04-10T04:13:57.177Z,102000.84
2023-04-10T04:16:47.624Z,101996.38
2023-04-10T04:19:28.437Z,101985.75
2023-04-10T04:22:23.907Z,101987.56
2023-04-10T04:25:11.594Z,101995.22
2023-04-10T04:27:59.276Z,101989.25
2023-04-10T04:30:45.492Z,101989.31
2023-04-10T04:33:48.674Z,101986.50
2023-04-10T04:36:31.157Z,101984.31
2023-04-10T04:39:24.746Z,101992.31
2023-04-10T04:42:12.691Z,101997.31
2023-04-10T04:44:47.573Z,101989.03
2023-04-10T04:47:28.469Z,101986.03
2023-04-10T04:50:17.987Z,101989.44
2023-04-10T04:53:14.499Z,101989.44
2023-04-10T04:56:09.056Z,101991.97
2023-04-10T04:58:49.026Z,101993.09
2023-04-10T05:01:41.098Z,101991.34
2023-04-10T05:04:08.814Z,101999.84
2023-04-10T05:06:55.189Z,101995.22
2023-04-10T05:09:53.636Z,101996.91
2023-04-10T05:12:21.170Z,101998.53
2023-04-10T05:15:18.119Z,101994.91
2023-04-10T05:17:55.824Z,102001.28
2023-04-10T05:20:40.877Z,102001.78
2023-04-10T05:23:26.957Z,101990.66
2023-04-10T05:26:17.442Z,101991.09
2023-04-10T05:28:52.064Z,101991.97
2023-04-10T05:31:40.123Z,101990.19
2023-04-10T05:34:17.042Z,101995.47
2023-04-10T05:37:08.845Z,101988.88
2023-04-10T05:39:54.835Z,101982.00
2023-04-10T05:42:28.485Z,101982.03
2023-04-10T05:45:09.839Z,101976.72
2023-04-10T05:47:46.426Z,101972.94
2023-04-10T05:50:35.975Z,101981.13
2023-04-10T05:53:31.134Z,101973.47
2023-04-10T05:56:16.510Z,101968.81
2023-04-10T05:59:02.606Z,101966.84
2023-04-10T06:01:53.325Z,101962.50
2023-04-10T06:04:22.250Z,101962.84
2023-04-10T06:06:55.143Z,101961.88
2023-04-10T06:09:22.711Z,101961.88
2023-04-10T06:11:50.351Z,101957.22
2023-04-10T06:14:21.649Z,101954.25
2023-04-10T06:16:49.260Z,101952.63
2023-04-10T06:19:17.244Z,101948.81
2023-04-10T06:21:44.800Z,101939.69
2023-04-10T06:24:15.697Z,101940.72
2023-04-10T06:26:43.229Z,101937.72
2023-04-10T06:29:11.349Z,101937.09
2023-04-10T06:31:39.816Z,101933.97
2023-04-10T06:34:07.360Z,101931.78
2023-04-10T06:36:37.825Z,101930.78
2023-04-10T06:39:07.636Z,101919.16
2023-04-10T06:41:36.612Z,101914.84
2023-04-10T06:44:16.014Z,101911.50
2023-04-10T06:46:43.649Z,101915.19
2023-04-10T06:49:11.222Z,101911.88
2023-04-10T06:51:38.718Z,101914.03
2023-04-10T06:54:06.263Z,101911.19
2023-04-10T06:56:33.792Z,101918.50
2023-04-10T06:59:03.158Z,101929.31
2023-04-10T07:01:30.720Z,101919.81
2023-04-10T07:03:58.348Z,101918.97
2023-04-10T07:06:26.191Z,101912.47
2023-04-10T07:08:53.898Z,101919.94
2023-04-10T07:11:21.637Z,101919.06
2023-04-10T07:13:53.305Z,101918.03
2023-04-10T07:16:22.232Z,101915.97
2023-04-10T07:18:49.783Z,101908.41
2023-04-10T07:21:17.302Z,101916.22
2023-04-10T07:23:44.841Z,101912.31
2023-04-10T07:26:12.436Z,101901.91
2023-04-10T07:28:39.971Z,101910.81
2023-04-10T07:31:08.806Z,101901.59
2023-04-10T07:33:37.998Z,101895.13
2023-04-10T07:36:06.952Z,101892.78
2023-04-10T07:38:34.579Z,101888.63
2023-04-10T07:41:02.132Z,101889.94
2023-04-10T07:43:29.679Z,101890.72
2023-04-10T07:45:57.615Z,101891.56
2023-04-10T07:48:25.213Z,101881.38
2023-04-10T07:50:54.188Z,101888.09
2023-04-10T07:53:21.782Z,101877.97
2023-04-10T07:55:50.882Z,101881.75
2023-04-10T07:58:18.451Z,101881.56
2023-04-10T08:00:46.376Z,101877.94
2023-04-10T08:03:14.014Z,101885.94
2023-04-10T08:05:41.780Z,101876.06
2023-04-10T08:08:10.841Z,101871.13
2023-04-10T08:10:39.017Z,101870.56
2023-04-10T08:13:06.740Z,101860.50
2023-04-10T08:15:34.267Z,101858.19
2023-04-10T08:18:01.989Z,101861.72
2023-04-10T08:20:29.763Z,101863.94
2023-04-10T08:23:01.012Z,101859.28
2023-04-10T08:25:41.577Z,101862.09
2023-04-10T08:28:09.148Z,101850.84
2023-04-10T08:30:36.696Z,101848.75
2023-04-10T08:33:04.488Z,101842.41
2023-04-10T08:35:32.119Z,101849.13
2023-04-10T08:38:12.645Z,101841.34
2023-04-10T08:40:44.385Z,101839.34
2023-04-10T08:43:12.007Z,101829.94
2023-04-10T08:45:41.467Z,101834.28
2023-04-10T08:48:11.428Z,101832.53
2023-04-10T08:50:42.965Z,101830.25
2023-04-10T08:53:13.008Z,101824.53
2023-04-10T08:55:43.082Z,101817.97
2023-04-10T08:58:13.489Z,101813.88
2023-04-10T09:00:41.091Z,101811.25
2023-04-10T09:03:11.892Z,101805.06
2023-04-10T09:05:39.595Z,101809.38
2023-04-10T09:08:09.088Z,101794.09
2023-04-10T09:10:36.622Z,101798.66
2023-04-10T09:13:05.582Z,101798.25
2023-04-10T09:15:59.475Z,101793.66
2023-04-10T09:18:43.042Z,101788.47
2023-04-10T09:21:11.736Z,101790.78
2023-04-10T09:23:39.300Z,101771.47
2023-04-10T09:26:24.203Z,101772.31
2023-04-10T09:29:01.748Z,101770.81
2023-04-10T09:31:34.460Z,101758.97
2023-04-10T09:34:09.848Z,101751.47
2023-04-10T09:36:38.314Z,101749.00
2023-04-10T09:39:06.733Z,101731.94
2023-04-10T09:41:34.733Z,101722.94
2023-04-10T09:44:11.351Z,101711.88
2023-04-10T09:46:39.459Z,101710.25
2023-04-10T09:49:07.543Z,101701.03
2023-04-10T09:51:36.493Z,101702.88
2023-04-10T09:54:05.023Z,101688.00
2023-04-10T09:56:37.976Z,101683.03
2023-04-10T09:59:07.658Z,101675.72
2023-04-10T10:01:40.476Z,101679.53
2023-04-10T10:04:09.149Z,101679.69
2023-04-10T10:06:39.143Z,101680.03
2023-04-10T10:09:06.901Z,101678.34
2023-04-10T10:11:35.936Z,101669.13
2023-04-10T10:14:06.147Z,101658.19
2023-04-10T10:16:40.590Z,101664.19
2023-04-10T10:19:13.814Z,101651.44
2023-04-10T10:21:45.043Z,101659.63
2023-04-10T10:24:14.139Z,101648.84
2023-04-10T10:26:41.789Z,101646.06
2023-04-10T10:29:13.251Z,101634.13
2023-04-10T10:31:43.379Z,101635.06
2023-04-10T10:34:11.274Z,101631.47
2023-04-10T10:36:41.282Z,101619.16
2023-04-10T10:39:26.084Z,101613.97
2023-04-10T10:42:02.474Z,101609.31
2023-04-10T10:44:38.031Z,101604.03
2023-04-10T10:47:15.633Z,101584.72
2023-04-10T10:49:57.022Z,101595.06
2023-04-10T10:52:46.376Z,101584.94
2023-04-10T10:55:31.490Z,101570.75
2023-04-10T10:58:01.120Z,101577.56
2023-04-10T11:01:18.994Z,101575.53
2023-04-10T11:03:48.220Z,101547.16
2023-04-10T11:06:19.287Z,101537.78
2023-04-10T11:08:48.212Z,101534.59
2023-04-10T11:11:17.947Z,101541.00
2023-04-10T11:14:18.084Z,101519.44
2023-04-10T11:16:48.290Z,101537.97
2023-04-10T11:19:22.624Z,101526.81
2023-04-10T11:22:08.940Z,101522.38
2023-04-10T11:24:57.539Z,101502.66
2023-04-10T11:27:46.166Z,101503.44
2023-04-10T11:30:34.605Z,101497.88
2023-04-10T11:33:03.760Z,101486.38
2023-04-10T11:35:33.672Z,101488.22
2023-04-10T11:38:14.823Z,101475.56
2023-04-10T11:41:04.000Z,101478.88
2023-04-10T11:43:33.633Z,101473.03
2023-04-10T11:46:02.965Z,101470.78
2023-04-10T11:48:31.202Z,101468.06
2023-04-10T11:51:01.959Z,101465.50
2023-04-10T11:53:29.978Z,101465.59
2023-04-10T11:55:58.402Z,101455.88
2023-04-10T11:58:27.505Z,101458.75
2023-04-10T12:01:02.632Z,101446.94
2023-04-10T12:03:40.675Z,101446.66
2023-04-10T12:06:12.101Z,101434.94
2023-04-10T12:08:41.186Z,101435.97
2023-04-10T12:11:10.485Z,101435.66
2023-04-10T12:13:39.069Z,101417.31
2023-04-10T12:16:09.474Z,101425.34
2023-04-10T12:18:37.742Z,101417.09
2023-04-10T12:21:07.622Z,101419.13
2023-04-10T12:23:38.872Z,101410.09
2023-04-10T12:26:09.507Z,101413.25
2023-04-10T12:28:38.157Z,101404.78
2023-04-10T12:31:06.369Z,101410.44
2023-04-10T12:33:34.179Z,101399.97
2023-04-10T12:36:01.893Z,101396.63
2023-04-10T12:38:41.213Z,101389.38
2023-04-10T12:41:10.001Z,101382.09
2023-04-10T12:43:38.868Z,101381.63
2023-04-10T12:46:08.066Z,101372.56
2023-04-10T12:48:36.056Z,101377.69
2023-04-10T12:51:04.420Z,101381.81
2023-04-10T12:53:32.790Z,101370.00
2023-04-10T12:56:03.667Z,101368.47
2023-04-10T12:58:31.996Z,101358.41
2023-04-10T13:01:03.488Z,101360.38
2023-04-10T13:03:31.835Z,101352.06
2023-04-10T13:05:59.781Z,101341.34
2023-04-10T13:08:27.340Z,101337.13
2023-04-10T13:10:58.049Z,101349.88
2023-04-10T13:13:27.069Z,101323.78
2023-04-10T13:15:55.568Z,101317.88
2023-04-10T13:18:23.212Z,101323.78
2023-04-10T13:20:51.297Z,101316.50
2023-04-10T13:23:18.984Z,101304.91
2023-04-10T13:25:46.918Z,101302.72
2023-04-10T13:28:15.847Z,101290.94
2023-04-10T13:30:44.729Z,101289.06
2023-04-10T13:33:12.363Z,101283.06
2023-04-10T13:35:40.915Z,101272.75
2023-04-10T13:38:09.282Z,101268.31
2023-04-10T13:40:37.056Z,101265.50
2023-04-10T13:43:06.248Z,101261.56
2023-04-10T13:45:34.897Z,101257.16
2023-04-10T13:48:04.199Z,101250.44
2023-04-10T13:50:32.059Z,101248.03
2023-04-10T13:52:59.609Z,101231.81
2023-04-10T13:55:27.150Z,101226.97
2023-04-10T13:57:54.726Z,101225.94
2023-04-10T14:00:22.260Z,101214.94
2023-04-10T14:02:49.898Z,101217.97
2023-04-10T14:05:19.165Z,101201.34
2023-04-10T14:07:46.648Z,101196.59
2023-04-10T14:10:14.250Z,101193.66
2023-04-10T14:12:41.732Z,101185.44
2023-04-10T14:15:10.672Z,101186.91
2023-04-10T14:17:38.245Z,101172.69
2023-04-10T14:20:07.028Z,101181.75
2023-04-10T14:22:35.939Z,101167.09
2023-04-10T14:25:12.305Z,101168.00
2023-04-10T14:27:40.953Z,101160.81
2023-04-10T14:30:09.740Z,101148.19
2023-04-10T14:32:37.407Z,101144.81
2023-04-10T14:35:05.518Z,101141.13
2023-04-10T14:37:33.383Z,101132.13
2023-04-10T14:40:04.517Z,101121.38
2023-04-10T14:42:32.224Z,101120.38
2023-04-10T14:45:00.009Z,101107.59
2023-04-10T14:47:27.753Z,101104.16
2023-04-10T14:49:55.370Z,101103.19
2023-04-10T14:52:23.167Z,101090.03
2023-04-10T14:54:50.745Z,101078.03
2023-04-10T14:57:19.626Z,101078.09
2023-04-10T14:59:47.177Z,101068.47
2023-04-10T15:02:15.332Z,101066.00
2023-04-10T15:04:43.839Z,101061.59
2023-04-10T15:07:11.419Z,101048.97
2023-04-10T15:09:38.981Z,101056.88
2023-04-10T15:12:06.832Z,101053.13
2023-04-10T15:14:35.822Z,101042.44
2023-04-10T15:17:03.412Z,101031.16
2023-04-10T15:19:31.027Z,101028.41
2023-04-10T15:21:58.573Z,101033.53
2023-04-10T15:24:27.054Z,101021.13
2023-04-10T15:26:56.209Z,101034.56
2023-04-10T15:29:23.743Z,101023.28
2023-04-10T15:31:52.725Z,101014.00
2023-04-10T15:34:20.450Z,101020.78
2023-04-10T15:36:48.240Z,101001.03
2023-04-10T15:39:16.141Z,100984.94
2023-04-10T15:41:43.858Z,100974.38
2023-04-10T15:44:11.389Z,100968.91
2023-04-10T15:46:39.031Z,100964.44
2023-04-10T15:49:08.110Z,100951.16
2023-04-10T15:51:35.846Z,100947.47
2023-04-10T15:54:04.887Z,100942.19
2023-04-10T15:56:33.657Z,100947.00
2023-04-10T15:59:01.441Z,100944.66
2023-04-10T16:01:29.182Z,100927.00
2023-04-10T16:03:57.064Z,100932.44
2023-04-10T16:06:27.636Z,100939.13
2023-04-10T16:08:55.216Z,100925.09
2023-04-10T16:11:22.872Z,100923.16
2023-04-10T16:13:50.662Z,100915.50
2023-04-10T16:16:19.094Z,100902.72
2023-04-10T16:18:47.093Z,100912.16
2023-04-10T16:21:15.180Z,100902.28
2023-04-10T16:23:44.028Z,100894.09
2023-04-10T16:26:11.542Z,100901.31
2023-04-10T16:28:39.147Z,100887.31
2023-04-10T16:31:07.329Z,100887.38
2023-04-10T16:33:34.945Z,100877.75
2023-04-10T16:36:04.612Z,100874.38
2023-04-10T16:38:34.418Z,100872.63
2023-04-10T16:41:04.378Z,100880.22
2023-04-10T16:43:32.295Z,100865.00
2023-04-10T16:46:00.846Z,100866.56
2023-04-10T16:48:28.450Z,100851.84
2023-04-10T16:50:56.045Z,100852.28
2023-04-10T16:53:23.529Z,100848.94
2023-04-10T16:55:57.810Z,100839.72
2023-04-10T16:58:26.838Z,100830.97
2023-04-10T17:00:54.539Z,100828.69
2023-04-10T17:03:22.513Z,100835.38
2023-04-10T17:05:50.010Z,100833.03
2023-04-10T17:08:17.542Z,100818.94
2023-04-10T17:10:45.088Z,100812.91
2023-04-10T17:13:12.665Z,100806.22
2023-04-10T17:15:41.527Z,100804.81
2023-04-10T17:18:09.085Z,100795.75
2023-04-10T17:20:37.024Z,100798.53
2023-04-10T17:23:04.718Z,100800.84
2023-04-10T17:25:32.277Z,100793.03
2023-04-10T17:27:59.917Z,100792.63
2023-04-10T17:30:27.586Z,100784.31
2023-04-10T17:32:56.507Z,100789.72
2023-04-10T17:35:25.277Z,100786.13
2023-04-10T17:37:53.022Z,100783.66
2023-04-10T17:40:20.760Z,100783.91
2023-04-10T17:42:48.306Z,100774.66
2023-04-10T17:45:16.019Z,100779.22
2023-04-10T17:47:43.621Z,100766.72
2023-04-10T17:50:12.570Z,100764.84
2023-04-10T17:52:40.085Z,100755.19
2023-04-10T17:55:08.499Z,100750.28
2023-04-10T17:57:36.007Z,100747.69
2023-04-10T18:00:06.866Z,100756.97
2023-04-10T18:02:34.507Z,100760.28
2023-04-10T18:05:03.394Z,100756.91
2023-04-10T18:07:32.254Z,100758.69
2023-04-10T18:09:59.778Z,100761.13
2023-04-10T18:12:27.347Z,100758.13
2023-04-10T18:14:54.881Z,100752.88
2023-04-10T18:17:22.463Z,100756.63
2023-04-10T18:19:51.026Z,100758.75
2023-04-10T18:22:18.639Z,100757.03
2023-04-10T18:24:48.380Z,100750.56
2023-04-10T18:27:16.153Z,100750.47
2023-04-10T18:29:43.979Z,100752.03
2023-04-10T18:32:11.600Z,100747.44
2023-04-10T18:34:39.503Z,100738.09
2023-04-10T18:37:09.009Z,100744.31
2023-04-10T18:39:38.124Z,100734.47
2023-04-10T18:42:10.608Z,100734.03
2023-04-10T18:44:38.213Z,100728.34
2023-04-10T18:47:06.011Z,100720.00
2023-04-10T18:49:33.618Z,100730.78
2023-04-10T18:52:01.492Z,100721.31
2023-04-10T18:54:29.939Z,100713.94
2023-04-10T18:56:57.570Z,100712.81
2023-04-10T18:59:27.649Z,100717.13
2023-04-10T19:01:55.442Z,100711.66
2023-04-10T19:04:23.421Z,100702.03
2023-04-10T19:06:51.316Z,100705.69
2023-04-10T19:09:18.883Z,100701.84
2023-04-10T19:11:46.525Z,100693.28
2023-04-10T19:14:14.076Z,100696.81
2023-04-10T19:16:42.991Z,100689.47
2023-04-10T19:19:10.576Z,100684.56
2023-04-10T19:21:38.136Z,100692.38
2023-04-10T19:24:06.194Z,100701.19
2023-04-10T19:26:33.804Z,100699.06
2023-04-10T19:29:01.328Z,100697.91
2023-04-10T19:31:29.499Z,100685.34
2023-04-10T19:33:58.483Z,100675.88
2023-04-10T19:36:27.083Z,100691.22
2023-04-10T19:38:57.161Z,100666.69
2023-04-10T19:41:25.974Z,100647.25
2023-04-10T19:43:53.910Z,100642.59
2023-04-10T19:46:22.791Z,100638.84
2023-04-10T19:48:51.787Z,100632.91
2023-04-10T19:51:20.708Z,100633.13
2023-04-10T19:53:48.249Z,100633.59
2023-04-10T19:56:17.360Z,100627.88
2023-04-10T19:58:46.888Z,100622.97
2023-04-10T20:01:14.627Z,100600.28
2023-04-10T20:03:42.489Z,100606.50
2023-04-10T20:06:10.750Z,100588.22
2023-04-10T20:08:39.652Z,100597.25
2023-04-10T20:11:07.406Z,100596.22
2023-04-10T20:13:35.162Z,100598.44
2023-04-10T20:16:03.026Z,100592.47
2023-04-10T20:18:32.387Z,100595.16
2023-04-10T20:21:00.031Z,100581.25
2023-04-10T20:23:27.586Z,100573.06
2023-04-10T20:25:56.583Z,100568.16
2023-04-10T20:28:24.518Z,100551.66
2023-04-10T20:30:52.085Z,100536.47
2023-04-10T20:33:19.586Z,100522.13
2023-04-10T20:35:47.135Z,100513.81
2023-04-10T20:38:14.752Z,100500.44
2023-04-10T20:40:42.281Z,100507.94
2023-04-10T20:43:12.210Z,100502.66
2023-04-10T20:45:40.638Z,100496.63
2023-04-10T20:48:09.737Z,100494.91
2023-04-10T20:50:37.906Z,100483.91
2023-04-10T20:53:05.574Z,100473.47
2023-04-10T20:55:33.128Z,100473.47
2023-04-10T20:58:00.707Z,100469.31
2023-04-10T21:00:30.816Z,100472.34
2023-04-10T21:02:58.677Z,100460.91
2023-04-10T21:05:26.402Z,100460.09
2023-04-10T21:07:54.161Z,100444.31
2023-04-10T21:10:21.916Z,100439.16
2023-04-10T21:12:49.430Z,100429.47
2023-04-10T21:15:17.035Z,100430.28
2023-04-10T21:17:45.959Z,100421.97
2023-04-10T21:20:13.738Z,100423.28
2023-04-10T21:22:41.323Z,100428.66
2023-04-10T21:25:09.968Z,100441.06
2023-04-10T21:27:37.541Z,100447.88
2023-04-10T21:30:05.834Z,100450.78
2023-04-10T21:32:33.369Z,100447.22
2023-04-10T21:35:02.383Z,100453.41
2023-04-10T21:37:30.907Z,100447.34
2023-04-10T21:39:58.603Z,100449.69
2023-04-10T21:42:26.134Z,100452.84
2023-04-10T21:44:54.520Z,100447.00
2023-04-10T21:47:22.055Z,100448.47
2023-04-10T21:49:49.617Z,100452.78
2023-04-10T21:52:18.508Z,100455.84
2023-04-10T21:54:46.060Z,100440.25
2023-04-10T21:57:13.570Z,100446.34
2023-04-10T21:59:41.102Z,100443.47
2023-04-10T22:02:10.626Z,100443.72
2023-04-10T22:04:44.572Z,100448.16
2023-04-10T22:07:22.612Z,100441.31
2023-04-10T22:09:50.190Z,100449.97
2023-04-10T22:12:17.720Z,100446.47
2023-04-10T22:14:45.304Z,100461.06
2023-04-10T22:17:12.927Z,100458.47
2023-04-10T22:19:40.435Z,100452.50
2023-04-10T22:22:07.993Z,100464.75
2023-04-10T22:24:37.106Z,100467.50
2023-04-10T22:27:04.678Z,100464.84
2023-04-10T22:29:32.543Z,100472.84
2023-04-10T22:32:00.083Z,100473.91
2023-04-10T22:34:27.737Z,100477.44
2023-04-10T22:36:55.285Z,100472.34
2023-04-10T22:39:23.059Z,100474.59
2023-04-10T22:41:51.947Z,100466.41
2023-04-10T22:44:19.644Z,100458.06
2023-04-10T22:46:48.220Z,100455.50
2023-04-10T22:49:17.036Z,100457.88
2023-04-10T22:51:45.911Z,100447.06
2023-04-10T22:54:13.621Z,100438.38
2023-04-10T22:56:41.129Z,100439.88
2023-04-10T22:59:10.372Z,100437.75
2023-04-10T23:01:37.982Z,100432.41
2023-04-10T23:04:05.565Z,100423.53
2023-04-10T23:06:33.355Z,100421.91
2023-04-10T23:09:00.866Z,100410.00
2023-04-10T23:11:28.371Z,100413.50
2023-04-10T23:13:55.893Z,100395.81
2023-04-10T23:16:24.800Z,100390.78
2023-04-10T23:18:52.533Z,100386.91
2023-04-10T23:21:20.689Z,100372.72
2023-04-10T23:23:48.280Z,100369.03
2023-04-10T23:26:15.826Z,100359.97
2023-04-10T23:28:43.440Z,100350.78
2023-04-10T23:31:11.056Z,100339.22
2023-04-10T23:33:39.928Z,100339.81
2023-04-10T23:36:08.066Z,100341.25
2023-04-10T23:38:35.594Z,100333.53
2023-04-10T23:41:03.785Z,100323.81
2023-04-10T23:43:31.324Z,100323.38
2023-04-10T23:45:58.831Z,100313.53
2023-04-10T23:48:26.390Z,100308.09
2023-04-10T23:51:05.103Z,100320.38
2023-04-10T23:53:32.862Z,100321.22
2023-04-10T23:56:00.434Z,100316.50
2023-04-10T23:58:28.001Z,100310.38
